createdAt,value
2018-09-18T07:21:57.626Z,3.90
2018-09-18T07:23:59.673Z,4.63
2018-09-18T07:26:01.722Z,3.50
2018-09-18T07:28:03.760Z,4.03
2018-09-18T07:30:07.819Z,4.20
2018-09-18T07:32:09.893Z,3.87
2018-09-18T07:34:11.929Z,4.37
2018-09-18T07:36:14.136Z,3.77
2018-09-18T07:38:16.187Z,4.00
2018-09-18T07:40:18.309Z,4.33
2018-09-18T07:42:20.349Z,4.20
2018-09-18T07:44:22.485Z,4.13
2018-09-18T07:46:24.644Z,4.77
2018-09-18T07:48:31.349Z,4.80
2018-09-18T07:50:33.381Z,4.47
2018-09-18T07:52:35.440Z,3.77
2018-09-18T07:54:37.519Z,4.87
2018-09-18T07:56:39.580Z,3.87
2018-09-18T07:58:41.629Z,3.70
2018-09-18T08:00:43.680Z,4.50
2018-09-18T08:02:45.711Z,4.20
2018-09-18T08:04:47.750Z,3.20
2018-09-18T08:06:49.818Z,3.53
2018-09-18T08:08:51.863Z,3.43
2018-09-18T08:10:54.055Z,3.73
2018-09-18T08:12:56.105Z,3.67
2018-09-18T08:14:58.152Z,4.10
2018-09-18T08:17:00.244Z,3.73
2018-09-18T08:19:02.448Z,4.30
2018-09-18T08:21:04.496Z,4.00
2018-09-18T08:23:06.548Z,4.13
2018-09-18T08:25:08.618Z,3.97
2018-09-18T08:27:10.663Z,4.30
2018-09-18T08:29:12.709Z,4.13
2018-09-18T08:31:14.781Z,4.40
2018-09-18T08:33:16.805Z,4.30
2018-09-18T08:35:18.917Z,3.77
2018-09-18T08:37:20.973Z,4.17
2018-09-18T08:39:23.027Z,4.40
2018-09-18T08:41:25.104Z,4.10
2018-09-18T08:43:27.184Z,4.60
2018-09-18T08:45:29.233Z,4.03
2018-09-18T08:47:31.307Z,4.10
2018-09-18T08:49:33.348Z,4.00
2018-09-18T08:51:35.455Z,3.93
2018-09-18T08:53:38.283Z,4.30
2018-09-18T08:55:40.472Z,4.50
2018-09-18T08:57:42.554Z,4.63
2018-09-18T08:59:44.710Z,4.17
2018-09-18T09:01:46.829Z,3.93
2018-09-18T09:03:49.212Z,4.20
2018-09-18T09:05:57.112Z,4.37
2018-09-18T09:08:02.795Z,4.20
2018-09-18T09:10:06.120Z,3.40
2018-09-18T09:12:09.360Z,4.03
2018-09-18T09:14:15.235Z,3.70
2018-09-18T09:16:18.720Z,4.17
2018-09-18T09:18:39.523Z,3.70
2018-09-18T09:20:51.950Z,4.37
2018-09-18T09:22:56.186Z,3.87
2018-09-18T09:25:01.581Z,3.60
2018-09-18T09:27:05.319Z,4.23
2018-09-18T09:29:07.565Z,3.70
2018-09-18T09:31:11.152Z,4.20
2018-09-18T09:33:25.075Z,4.20
2018-09-18T09:35:28.814Z,3.90
2018-09-18T09:37:39.171Z,4.10
2018-09-18T09:39:48.303Z,3.90
2018-09-18T09:46:19.452Z,3.87
2018-09-18T09:48:41.649Z,3.50
2018-09-18T09:50:44.787Z,3.33
2018-09-18T09:55:39.589Z,3.77
2018-09-18T09:57:58.963Z,3.87
2018-09-18T10:00:01.192Z,4.20
2018-09-18T10:02:09.186Z,3.80
2018-09-18T10:04:11.293Z,3.37
2018-09-18T10:06:13.433Z,4.13
2018-09-18T10:08:15.514Z,3.53
2018-09-18T10:10:17.602Z,4.00
2018-09-18T10:12:19.838Z,3.80
2018-09-18T10:14:21.979Z,4.50
2018-09-18T10:16:24.032Z,3.90
2018-09-18T10:18:26.114Z,4.33
2018-09-18T10:20:28.245Z,3.93
2018-09-18T10:22:30.377Z,3.80
2018-09-18T10:24:32.468Z,3.50
2018-09-18T10:26:34.603Z,4.00
2018-09-18T10:28:36.718Z,4.40
2018-09-18T10:30:38.814Z,3.80
2018-09-18T10:32:40.931Z,3.60
2018-09-18T10:34:42.953Z,3.90
2018-09-18T10:36:44.981Z,3.73
2018-09-18T10:38:47.062Z,3.83
2018-09-18T10:40:49.145Z,4.30
2018-09-18T10:42:51.353Z,3.80
2018-09-18T10:44:53.303Z,3.37
2018-09-18T10:46:55.437Z,4.13
2018-09-18T10:48:57.957Z,4.43
2018-09-18T10:51:00.033Z,4.33
2018-09-18T10:53:02.142Z,3.97
2018-09-18T10:55:04.249Z,3.60
2018-09-18T10:57:06.334Z,3.60
2018-09-18T10:59:08.402Z,3.83
2018-09-18T11:01:10.485Z,3.80
2018-09-18T11:03:12.540Z,3.60
2018-09-18T11:05:14.610Z,3.53
2018-09-18T11:07:16.696Z,3.10
2018-09-18T11:09:18.787Z,3.57
2018-09-18T11:11:20.834Z,3.80
2018-09-18T11:13:22.903Z,4.10
2018-09-18T11:15:25.016Z,4.00
2018-09-18T11:17:27.105Z,3.90
2018-09-18T11:19:29.269Z,3.80
2018-09-18T11:21:31.390Z,3.63
2018-09-18T11:23:33.461Z,3.77
2018-09-18T11:25:35.602Z,3.50
2018-09-18T11:27:37.699Z,3.90
2018-09-18T11:29:39.828Z,3.40
2018-09-18T11:31:41.915Z,3.20
2018-09-18T11:33:43.992Z,3.00
2018-09-18T11:35:46.109Z,3.07
2018-09-18T11:37:48.206Z,3.40
2018-09-18T11:39:50.331Z,3.17
2018-09-18T11:41:52.461Z,3.37
2018-09-18T11:43:54.553Z,3.40
2018-09-18T11:45:57.068Z,3.10
2018-09-18T11:47:59.227Z,3.53
2018-09-18T11:50:01.574Z,3.37
2018-09-18T11:52:03.858Z,3.27
2018-09-18T11:54:06.955Z,3.20
2018-09-18T11:56:09.229Z,3.40
2018-09-18T11:58:11.887Z,3.53
2018-09-18T12:00:14.045Z,3.23
2018-09-18T12:02:16.644Z,3.67
2018-09-18T12:04:19.071Z,3.77
2018-09-18T12:06:21.331Z,3.30
2018-09-18T12:08:23.604Z,3.00
2018-09-18T12:10:25.769Z,3.23
2018-09-18T12:12:28.229Z,2.70
2018-09-18T12:14:30.737Z,3.43
2018-09-18T12:16:32.952Z,3.20
2018-09-18T12:18:35.208Z,2.90
2018-09-18T12:20:37.433Z,2.83
2018-09-18T12:22:39.720Z,3.10
2018-09-18T12:24:42.016Z,3.30
2018-09-18T12:26:44.386Z,3.50
2018-09-18T12:28:46.738Z,3.30
2018-09-18T12:30:48.914Z,3.60
2018-09-18T12:32:51.271Z,3.07
2018-09-18T12:34:53.714Z,4.23
2018-09-18T12:36:55.923Z,4.10
2018-09-18T12:38:58.136Z,4.50
2018-09-18T12:41:00.362Z,4.40
2018-09-18T12:43:02.753Z,4.83
2018-09-18T12:45:04.952Z,4.00
2018-09-18T12:47:07.154Z,4.20
2018-09-18T12:49:09.451Z,4.20
2018-09-18T12:51:11.569Z,4.17
2018-09-18T12:53:13.855Z,5.33
2018-09-18T12:55:16.167Z,3.83
2018-09-18T12:57:18.611Z,3.70
2018-09-18T12:59:20.808Z,3.87
2018-09-18T13:01:22.983Z,5.00
2018-09-18T13:03:25.313Z,4.43
2018-09-18T13:05:27.623Z,4.13
2018-09-18T13:07:30.070Z,5.20
2018-09-18T13:09:32.395Z,4.30
2018-09-18T13:11:34.735Z,4.50
2018-09-18T13:13:37.569Z,4.10
2018-09-18T13:15:39.994Z,4.17
2018-09-18T13:17:46.319Z,4.27
2018-09-18T13:19:48.746Z,4.20
2018-09-18T13:21:51.140Z,5.37
2018-09-18T13:23:53.592Z,5.70
2018-09-18T13:25:55.948Z,4.80
2018-09-18T13:27:58.665Z,5.27
2018-09-18T13:30:01.181Z,5.40
2018-09-18T13:32:03.503Z,4.67
2018-09-18T13:34:06.147Z,4.87
2018-09-18T13:36:10.757Z,4.50
2018-09-18T13:38:14.122Z,4.80
2018-09-18T13:40:16.537Z,5.17
2018-09-18T13:42:18.845Z,4.60
2018-09-18T13:44:27.457Z,4.60
2018-09-18T13:46:30.019Z,4.57
2018-09-18T13:48:32.499Z,4.33
2018-09-18T13:50:35.454Z,4.23
2018-09-18T13:52:38.516Z,4.70
2018-09-18T13:54:41.112Z,4.57
2018-09-18T13:56:45.662Z,3.90
2018-09-18T13:58:48.846Z,5.00
2018-09-18T14:00:52.372Z,4.90
2018-09-18T14:03:34.050Z,4.07
2018-09-18T14:05:44.816Z,4.33
2018-09-18T14:07:49.669Z,4.60
2018-09-18T14:09:52.740Z,4.73
2018-09-18T14:11:55.693Z,4.20
2018-09-18T14:13:58.254Z,4.20
2018-09-18T14:16:00.967Z,4.20
2018-09-18T14:18:05.049Z,3.73
2018-09-18T14:20:07.793Z,4.90
2018-09-18T14:22:10.734Z,4.70
2018-09-18T14:24:13.232Z,4.50
2018-09-18T14:26:15.696Z,4.40
2018-09-18T14:28:19.799Z,4.13
2018-09-18T14:30:22.430Z,4.37
2018-09-18T14:32:26.041Z,4.17
2018-09-18T14:34:29.119Z,4.03
2018-09-18T14:36:32.380Z,3.73
2018-09-18T14:38:34.968Z,4.50
2018-09-18T14:40:37.850Z,4.07
2018-09-18T14:42:42.006Z,3.90
2018-09-18T14:44:45.267Z,4.53
2018-09-18T14:46:51.652Z,3.80
2018-09-18T14:48:54.835Z,4.93
2018-09-18T14:50:57.222Z,4.10
2018-09-18T14:53:00.119Z,4.50
2018-09-18T14:55:02.739Z,4.40
2018-09-18T14:57:04.973Z,4.27
2018-09-18T14:59:07.126Z,4.50
2018-09-18T15:01:09.353Z,4.40
2018-09-18T15:03:11.503Z,4.50
2018-09-18T15:05:13.747Z,4.60
2018-09-18T15:07:16.648Z,4.80
2018-09-18T15:09:20.429Z,4.27
2018-09-18T15:11:22.795Z,4.40
2018-09-18T15:13:24.990Z,4.60
2018-09-18T15:15:27.396Z,4.60
2018-09-18T15:17:29.409Z,4.47
2018-09-18T15:19:31.566Z,5.00
2018-09-18T15:21:33.990Z,4.43
2018-09-18T15:23:36.036Z,4.70
2018-09-18T15:25:38.153Z,4.50
2018-09-18T16:52:05.141Z,5.03
2018-09-18T16:54:08.003Z,4.63
2018-09-18T16:56:10.318Z,5.27
2018-09-18T16:58:12.391Z,4.70
2018-09-18T17:00:14.800Z,4.70
2018-09-18T17:02:17.558Z,5.80
2018-09-18T17:04:19.642Z,4.30
2018-09-18T17:06:23.488Z,5.40
2018-09-18T17:08:26.206Z,4.60
2018-09-18T17:10:29.674Z,4.67
2018-09-18T17:12:31.834Z,4.80
2018-09-18T17:14:35.302Z,4.87
2018-09-18T17:16:37.499Z,5.03
2018-09-18T17:18:39.689Z,4.93
2018-09-18T17:20:42.970Z,5.60
2018-09-18T17:22:45.194Z,5.10
2018-09-18T17:24:47.345Z,5.20
2018-09-18T17:26:49.533Z,4.60
2018-09-18T17:28:51.761Z,5.90
2018-09-18T17:30:54.131Z,5.20
2018-09-18T17:32:56.299Z,4.77
2018-09-18T17:34:58.686Z,4.67
2018-09-18T17:37:00.927Z,4.40
2018-09-18T17:39:04.989Z,5.30
2018-09-18T17:41:07.600Z,5.83
2018-09-18T17:43:09.769Z,6.00
2018-09-18T17:45:12.398Z,5.27
2018-09-18T17:47:14.871Z,5.63
2018-09-18T17:49:16.974Z,6.00
2018-09-18T17:51:19.194Z,5.93
2018-09-18T17:53:22.394Z,5.03
2018-09-18T17:55:24.870Z,5.10
2018-09-18T17:57:27.518Z,5.43
2018-09-18T17:59:30.556Z,5.00
2018-09-18T18:01:32.805Z,5.17
2018-09-18T18:03:36.653Z,5.00
2018-09-18T18:05:38.921Z,5.87
2018-09-18T18:07:40.959Z,5.73
2018-09-18T18:09:43.113Z,5.70
2018-09-18T18:11:45.197Z,6.33
2018-09-18T18:13:47.275Z,5.80
2018-09-18T18:15:49.392Z,5.00
2018-09-18T18:17:51.468Z,5.50
2018-09-18T18:19:53.523Z,5.10
2018-09-18T18:21:55.581Z,4.87
2018-09-18T18:23:57.604Z,5.50
2018-09-18T18:28:29.314Z,5.20
2018-09-18T18:30:31.402Z,5.43
2018-09-18T18:32:33.476Z,5.60
2018-09-18T18:34:35.526Z,5.00
2018-09-18T18:36:37.591Z,6.00
2018-09-18T18:38:39.666Z,5.33
2018-09-18T18:40:41.790Z,5.30
2018-09-18T18:42:43.809Z,5.30
2018-09-18T18:44:45.971Z,5.47
2018-09-18T18:46:48.037Z,5.30
2018-09-18T18:48:50.172Z,6.30
2018-09-18T18:50:52.213Z,5.67
2018-09-18T18:52:54.293Z,6.10
2018-09-18T18:54:56.450Z,5.30
2018-09-18T18:56:58.526Z,5.17
2018-09-18T18:59:00.659Z,5.83
2018-09-18T19:01:02.716Z,5.70
2018-09-18T19:03:04.755Z,5.63
2018-09-18T19:05:06.895Z,5.57
2018-09-18T19:07:08.970Z,5.30
2018-09-18T19:09:11.161Z,5.00
2018-09-18T19:11:13.224Z,6.40
2018-09-18T19:13:15.292Z,5.60
2018-09-18T19:15:17.392Z,5.37
2018-09-18T19:17:19.476Z,6.03
2018-09-18T19:19:21.599Z,5.00
2018-09-18T19:21:23.767Z,4.80
2018-09-18T19:23:25.927Z,5.20
2018-09-18T19:25:28.005Z,5.20
2018-09-18T19:27:30.033Z,5.00
2018-09-18T19:29:32.099Z,4.20
2018-09-18T19:31:34.416Z,5.10
2018-09-18T19:33:36.596Z,4.53
2018-09-18T19:35:38.642Z,4.23
2018-09-18T19:37:40.662Z,4.80
2018-09-18T19:39:42.761Z,5.37
2018-09-18T19:41:47.096Z,4.33
2018-09-18T19:43:49.171Z,3.87
2018-09-18T19:45:51.264Z,4.50
2018-09-18T19:47:53.295Z,3.90
2018-09-18T19:49:55.353Z,4.30
2018-09-18T19:51:57.410Z,4.33
2018-09-18T19:53:59.674Z,3.73
2018-09-18T19:56:01.832Z,4.20
2018-09-18T19:58:03.971Z,3.77
2018-09-18T20:00:06.967Z,4.03
2018-09-18T20:02:09.019Z,4.70
2018-09-18T20:04:11.243Z,4.00
2018-09-18T20:06:13.337Z,4.60
2018-09-18T20:08:15.456Z,3.90
2018-09-18T20:10:17.519Z,4.40
2018-09-18T20:12:19.686Z,4.30
2018-09-18T20:14:21.854Z,4.57
2018-09-18T20:16:24.015Z,4.23
2018-09-18T20:18:26.049Z,4.57
2018-09-18T20:20:28.100Z,4.57
2018-09-18T20:22:30.161Z,4.57
2018-09-18T20:24:32.287Z,4.40
2018-09-18T20:26:34.380Z,4.43
2018-09-18T20:28:36.572Z,4.03
2018-09-18T20:30:38.625Z,4.57
2018-09-18T20:32:40.708Z,4.10
2018-09-18T20:34:42.866Z,4.20
2018-09-18T20:36:47.283Z,4.53
2018-09-18T20:38:49.345Z,4.23
2018-09-18T20:40:51.417Z,4.93
2018-09-18T20:42:53.525Z,5.80
2018-09-18T20:44:55.565Z,4.20
2018-09-18T20:46:57.966Z,5.30
2018-09-18T20:49:00.055Z,4.60
2018-09-18T20:51:02.189Z,4.60
2018-09-18T20:53:04.257Z,4.73
2018-09-18T20:55:06.342Z,4.33
2018-09-18T20:57:08.445Z,4.30
2018-09-18T20:59:10.485Z,5.13
2018-09-18T21:01:12.558Z,5.07
2018-09-18T21:03:14.606Z,4.50
2018-09-18T21:05:16.757Z,4.70
2018-09-18T21:07:18.818Z,4.33
2018-09-18T21:09:20.910Z,4.50
2018-09-18T21:11:22.960Z,4.47
2018-09-18T21:13:25.004Z,4.37
2018-09-18T21:15:27.050Z,5.03
2018-09-18T21:17:29.081Z,4.33
2018-09-18T21:19:31.140Z,4.40
2018-09-18T21:21:33.241Z,5.40
2018-09-18T21:23:35.322Z,5.47
2018-09-18T21:25:58.237Z,7.20
2018-09-18T21:28:00.298Z,11.33
2018-09-18T21:30:02.362Z,15.93
2018-09-18T21:32:04.470Z,15.77
2018-09-18T21:34:06.537Z,18.33
2018-09-18T21:36:08.615Z,22.33
2018-09-18T21:38:10.660Z,21.80
2018-09-18T21:40:12.713Z,21.30
2018-09-18T21:42:14.779Z,23.50
2018-09-18T21:44:16.821Z,24.03
2018-09-18T21:46:18.941Z,25.23
2018-09-18T21:48:20.992Z,21.90
2018-09-18T21:50:23.061Z,24.70
2018-09-18T21:52:25.337Z,27.10
2018-09-18T21:54:27.401Z,27.73
2018-09-18T21:56:29.462Z,28.43
2018-09-18T21:58:31.548Z,29.20
2018-09-18T22:00:33.601Z,30.30
2018-09-18T22:02:35.677Z,32.17
2018-09-18T22:04:37.742Z,31.00
2018-09-18T22:06:39.794Z,32.40
2018-09-18T22:08:41.851Z,31.97
2018-09-18T22:10:43.919Z,32.73
2018-09-18T22:12:46.061Z,33.00
2018-09-18T22:14:48.123Z,32.73
2018-09-18T22:16:50.190Z,34.30
2018-09-18T22:18:52.247Z,33.40
2018-09-18T22:20:54.285Z,34.83
2018-09-18T22:22:56.362Z,34.43
2018-09-18T22:24:58.426Z,33.70
2018-09-18T22:27:00.745Z,33.90
2018-09-18T22:29:02.809Z,34.23
2018-09-18T22:31:04.912Z,33.37
2018-09-18T22:33:07.005Z,31.20
2018-09-18T22:35:09.053Z,28.07
2018-09-18T22:37:11.109Z,27.83
2018-09-18T22:39:13.154Z,26.93
2018-09-18T22:41:15.206Z,28.93
2018-09-18T22:43:17.287Z,29.43
2018-09-18T22:45:19.407Z,27.90
2018-09-18T22:47:21.485Z,26.87
2018-09-18T22:49:23.579Z,28.57
2018-09-18T22:51:25.633Z,26.87
2018-09-18T22:53:27.670Z,25.80
2018-09-18T22:55:29.705Z,23.23
2018-09-18T22:57:31.848Z,23.43
2018-09-18T22:59:33.866Z,23.10
2018-09-18T23:01:35.921Z,24.63
2018-09-18T23:03:38.000Z,25.37
2018-09-18T23:05:40.088Z,23.00
2018-09-18T23:07:42.149Z,22.40
2018-09-18T23:09:44.216Z,23.57
2018-09-18T23:11:46.308Z,22.50
2018-09-18T23:13:48.363Z,21.70
2018-09-18T23:15:50.428Z,22.83
2018-09-18T23:17:52.536Z,23.37
2018-09-18T23:19:54.615Z,21.43
2018-09-18T23:21:59.033Z,21.60
2018-09-18T23:24:01.103Z,22.70
2018-09-18T23:26:03.166Z,20.73
2018-09-18T23:28:05.343Z,22.07
2018-09-18T23:30:07.390Z,20.67
2018-09-18T23:32:09.475Z,21.07
2018-09-18T23:34:11.609Z,21.03
2018-09-18T23:36:13.689Z,20.03
2018-09-18T23:38:15.799Z,21.47
2018-09-18T23:40:17.938Z,21.07
2018-09-18T23:42:20.138Z,20.37
2018-09-18T23:44:22.038Z,19.17
2018-09-18T23:46:24.132Z,20.83
2018-09-18T23:48:26.180Z,20.80
2018-09-18T23:50:28.214Z,19.63
2018-09-18T23:52:30.249Z,18.97
2018-09-18T23:54:32.375Z,19.37
2018-09-18T23:56:34.373Z,19.20
2018-09-18T23:58:36.413Z,19.50
